sensor_id;sensor_type;location;lat;lon;timestamp;P1;durP1;ratioP1;P2;durP2;ratioP2
11191;SDS011;5652;48.406;10.820;2022-12-18T00:02:17;122.23;;;48.80;;
11191;SDS011;5652;48.406;10.820;2022-12-18T00:04:45;129.98;;;50.17;;
11191;SDS011;5652;48.406;10.820;2022-12-18T00:07:12;125.88;;;49.58;;
11191;SDS011;5652;48.406;10.820;2022-12-18T00:09:39;127.70;;;49.90;;
11191;SDS011;5652;48.406;10.820;2022-12-18T00:12:06;120.43;;;46.90;;
11191;SDS011;5652;48.406;10.820;2022-12-18T00:14:33;114.45;;;46.80;;
11191;SDS011;5652;48.406;10.820;2022-12-18T00:17:03;123.57;;;48.72;;
11191;SDS011;5652;48.406;10.820;2022-12-18T00:19:30;121.95;;;48.08;;
11191;SDS011;5652;48.406;10.820;2022-12-18T00:21:57;123.22;;;48.42;;
11191;SDS011;5652;48.406;10.820;2022-12-18T00:24:24;122.57;;;48.83;;
11191;SDS011;5652;48.406;10.820;2022-12-18T00:26:52;149.50;;;60.35;;
11191;SDS011;5652;48.406;10.820;2022-12-18T00:29:19;158.25;;;50.47;;
11191;SDS011;5652;48.406;10.820;2022-12-18T00:31:46;110.60;;;47.17;;
11191;SDS011;5652;48.406;10.820;2022-12-18T00:34:15;119.05;;;48.83;;
11191;SDS011;5652;48.406;10.820;2022-12-18T00:36:42;105.20;;;44.58;;
11191;SDS011;5652;48.406;10.820;2022-12-18T00:39:09;97.90;;;44.15;;
11191;SDS011;5652;48.406;10.820;2022-12-18T00:41:37;97.87;;;42.77;;
11191;SDS011;5652;48.406;10.820;2022-12-18T00:44:21;90.82;;;41.75;;
11191;SDS011;5652;48.406;10.820;2022-12-18T00:46:49;91.93;;;42.25;;
11191;SDS011;5652;48.406;10.820;2022-12-18T00:49:19;90.25;;;42.05;;
11191;SDS011;5652;48.406;10.820;2022-12-18T00:51:46;98.35;;;43.88;;
11191;SDS011;5652;48.406;10.820;2022-12-18T00:54:14;97.72;;;42.35;;
11191;SDS011;5652;48.406;10.820;2022-12-18T00:56:41;90.90;;;43.35;;
11191;SDS011;5652;48.406;10.820;2022-12-18T00:59:08;87.00;;;39.45;;
11191;SDS011;5652;48.406;10.820;2022-12-18T01:01:37;81.05;;;39.05;;
11191;SDS011;5652;48.406;10.820;2022-12-18T01:04:04;83.23;;;38.90;;
11191;SDS011;5652;48.406;10.820;2022-12-18T01:06:32;91.97;;;40.40;;
11191;SDS011;5652;48.406;10.820;2022-12-18T01:09:00;90.20;;;41.22;;
11191;SDS011;5652;48.406;10.820;2022-12-18T01:11:27;86.82;;;41.75;;
11191;SDS011;5652;48.406;10.820;2022-12-18T01:13:54;83.68;;;39.92;;
11191;SDS011;5652;48.406;10.820;2022-12-18T01:16:22;79.10;;;38.67;;
11191;SDS011;5652;48.406;10.820;2022-12-18T01:18:51;78.63;;;37.35;;
11191;SDS011;5652;48.406;10.820;2022-12-18T01:21:18;78.93;;;36.30;;
11191;SDS011;5652;48.406;10.820;2022-12-18T01:23:50;82.63;;;38.23;;
11191;SDS011;5652;48.406;10.820;2022-12-18T01:26:17;113.20;;;47.17;;
11191;SDS011;5652;48.406;10.820;2022-12-18T01:28:45;118.97;;;48.78;;
11191;SDS011;5652;48.406;10.820;2022-12-18T01:31:13;117.20;;;48.30;;
11191;SDS011;5652;48.406;10.820;2022-12-18T01:33:40;129.63;;;49.77;;
11191;SDS011;5652;48.406;10.820;2022-12-18T01:36:08;112.90;;;47.53;;
11191;SDS011;5652;48.406;10.820;2022-12-18T01:38:41;111.82;;;46.65;;
11191;SDS011;5652;48.406;10.820;2022-12-18T01:41:10;113.57;;;46.60;;
11191;SDS011;5652;48.406;10.820;2022-12-18T01:43:41;117.85;;;47.60;;
11191;SDS011;5652;48.406;10.820;2022-12-18T01:46:08;113.10;;;47.08;;
11191;SDS011;5652;48.406;10.820;2022-12-18T01:48:35;111.32;;;45.65;;
11191;SDS011;5652;48.406;10.820;2022-12-18T01:51:03;105.68;;;46.28;;
11191;SDS011;5652;48.406;10.820;2022-12-18T01:53:31;108.60;;;45.92;;
11191;SDS011;5652;48.406;10.820;2022-12-18T01:55:58;150.88;;;49.42;;
11191;SDS011;5652;48.406;10.820;2022-12-18T01:58:30;87.13;;;40.75;;
11191;SDS011;5652;48.406;10.820;2022-12-18T02:00:59;79.28;;;37.15;;
11191;SDS011;5652;48.406;10.820;2022-12-18T02:03:26;80.05;;;37.55;;
11191;SDS011;5652;48.406;10.820;2022-12-18T02:05:55;78.78;;;38.10;;
11191;SDS011;5652;48.406;10.820;2022-12-18T02:08:28;90.13;;;40.23;;
11191;SDS011;5652;48.406;10.820;2022-12-18T02:11:00;91.72;;;39.45;;
11191;SDS011;5652;48.406;10.820;2022-12-18T02:13:32;93.47;;;39.17;;
11191;SDS011;5652;48.406;10.820;2022-12-18T02:16:02;98.07;;;41.50;;
11191;SDS011;5652;48.406;10.820;2022-12-18T02:18:31;88.88;;;39.78;;
11191;SDS011;5652;48.406;10.820;2022-12-18T02:21:00;83.90;;;39.78;;
11191;SDS011;5652;48.406;10.820;2022-12-18T02:23:37;79.70;;;37.85;;
11191;SDS011;5652;48.406;10.820;2022-12-18T02:26:13;78.28;;;37.15;;
11191;SDS011;5652;48.406;10.820;2022-12-18T02:28:42;77.10;;;36.55;;
11191;SDS011;5652;48.406;10.820;2022-12-18T02:31:11;93.15;;;38.40;;
11191;SDS011;5652;48.406;10.820;2022-12-18T02:33:41;85.45;;;38.83;;
11191;SDS011;5652;48.406;10.820;2022-12-18T02:36:10;77.43;;;37.28;;
11191;SDS011;5652;48.406;10.820;2022-12-18T02:38:39;86.38;;;39.55;;
11191;SDS011;5652;48.406;10.820;2022-12-18T02:41:08;81.97;;;39.43;;
11191;SDS011;5652;48.406;10.820;2022-12-18T02:43:37;92.43;;;41.45;;
11191;SDS011;5652;48.406;10.820;2022-12-18T02:48:46;84.65;;;39.78;;
11191;SDS011;5652;48.406;10.820;2022-12-18T02:51:14;82.15;;;38.63;;
11191;SDS011;5652;48.406;10.820;2022-12-18T02:53:45;81.35;;;37.80;;
11191;SDS011;5652;48.406;10.820;2022-12-18T02:56:15;95.03;;;37.15;;
11191;SDS011;5652;48.406;10.820;2022-12-18T02:58:46;77.05;;;36.08;;
11191;SDS011;5652;48.406;10.820;2022-12-18T03:01:15;93.32;;;37.63;;
11191;SDS011;5652;48.406;10.820;2022-12-18T03:03:44;86.50;;;38.10;;
11191;SDS011;5652;48.406;10.820;2022-12-18T03:06:15;78.63;;;36.37;;
11191;SDS011;5652;48.406;10.820;2022-12-18T03:08:43;83.32;;;37.13;;
11191;SDS011;5652;48.406;10.820;2022-12-18T03:11:12;78.63;;;35.33;;
11191;SDS011;5652;48.406;10.820;2022-12-18T03:13:41;108.90;;;37.80;;
11191;SDS011;5652;48.406;10.820;2022-12-18T03:16:12;116.40;;;38.75;;
11191;SDS011;5652;48.406;10.820;2022-12-18T03:18:42;86.68;;;36.50;;
11191;SDS011;5652;48.406;10.820;2022-12-18T03:21:13;86.85;;;37.85;;
11191;SDS011;5652;48.406;10.820;2022-12-18T03:23:42;78.38;;;35.78;;
11191;SDS011;5652;48.406;10.820;2022-12-18T03:26:13;77.43;;;35.90;;
11191;SDS011;5652;48.406;10.820;2022-12-18T03:28:42;87.93;;;35.88;;
11191;SDS011;5652;48.406;10.820;2022-12-18T03:31:12;80.10;;;35.55;;
11191;SDS011;5652;48.406;10.820;2022-12-18T03:33:41;78.47;;;35.40;;
11191;SDS011;5652;48.406;10.820;2022-12-18T03:36:10;77.00;;;33.22;;
11191;SDS011;5652;48.406;10.820;2022-12-18T03:38:38;78.65;;;33.17;;
11191;SDS011;5652;48.406;10.820;2022-12-18T03:41:06;69.40;;;33.17;;
11191;SDS011;5652;48.406;10.820;2022-12-18T03:43:40;73.73;;;32.73;;
11191;SDS011;5652;48.406;10.820;2022-12-18T03:46:13;74.88;;;32.70;;
11191;SDS011;5652;48.406;10.820;2022-12-18T03:48:43;78.03;;;32.67;;
11191;SDS011;5652;48.406;10.820;2022-12-18T03:51:13;76.45;;;32.42;;
11191;SDS011;5652;48.406;10.820;2022-12-18T03:53:43;67.38;;;30.98;;
11191;SDS011;5652;48.406;10.820;2022-12-18T03:56:14;62.95;;;29.98;;
11191;SDS011;5652;48.406;10.820;2022-12-18T03:58:42;68.43;;;29.88;;
11191;SDS011;5652;48.406;10.820;2022-12-18T04:01:12;61.45;;;29.35;;
11191;SDS011;5652;48.406;10.820;2022-12-18T04:03:40;65.47;;;29.80;;
11191;SDS011;5652;48.406;10.820;2022-12-18T04:06:08;71.20;;;29.15;;
11191;SDS011;5652;48.406;10.820;2022-12-18T04:08:36;66.53;;;29.50;;
11191;SDS011;5652;48.406;10.820;2022-12-18T04:11:05;64.03;;;29.17;;
11191;SDS011;5652;48.406;10.820;2022-12-18T04:13:33;73.32;;;30.35;;
11191;SDS011;5652;48.406;10.820;2022-12-18T04:16:00;75.75;;;30.02;;
11191;SDS011;5652;48.406;10.820;2022-12-18T04:18:29;67.32;;;30.15;;
11191;SDS011;5652;48.406;10.820;2022-12-18T04:20:57;63.17;;;29.67;;
11191;SDS011;5652;48.406;10.820;2022-12-18T04:23:24;66.88;;;31.33;;
11191;SDS011;5652;48.406;10.820;2022-12-18T04:25:51;67.18;;;31.42;;
11191;SDS011;5652;48.406;10.820;2022-12-18T04:28:18;61.50;;;29.80;;
11191;SDS011;5652;48.406;10.820;2022-12-18T04:30:45;61.08;;;30.42;;
11191;SDS011;5652;48.406;10.820;2022-12-18T04:33:13;61.47;;;30.08;;
11191;SDS011;5652;48.406;10.820;2022-12-18T04:35:41;68.15;;;31.15;;
11191;SDS011;5652;48.406;10.820;2022-12-18T04:38:09;79.57;;;31.00;;
11191;SDS011;5652;48.406;10.820;2022-12-18T04:40:36;73.10;;;29.90;;
11191;SDS011;5652;48.406;10.820;2022-12-18T04:43:04;65.97;;;29.98;;
11191;SDS011;5652;48.406;10.820;2022-12-18T04:45:31;60.63;;;29.75;;
11191;SDS011;5652;48.406;10.820;2022-12-18T04:47:59;59.58;;;29.73;;
11191;SDS011;5652;48.406;10.820;2022-12-18T04:50:26;63.00;;;30.20;;
11191;SDS011;5652;48.406;10.820;2022-12-18T04:52:56;73.47;;;32.80;;
11191;SDS011;5652;48.406;10.820;2022-12-18T04:55:24;70.82;;;32.88;;
11191;SDS011;5652;48.406;10.820;2022-12-18T04:57:51;73.85;;;31.92;;
11191;SDS011;5652;48.406;10.820;2022-12-18T05:00:19;64.50;;;30.35;;
11191;SDS011;5652;48.406;10.820;2022-12-18T05:02:46;75.13;;;30.70;;
11191;SDS011;5652;48.406;10.820;2022-12-18T05:05:14;61.78;;;29.83;;
11191;SDS011;5652;48.406;10.820;2022-12-18T05:07:41;63.67;;;30.73;;
11191;SDS011;5652;48.406;10.820;2022-12-18T05:10:10;61.77;;;28.87;;
11191;SDS011;5652;48.406;10.820;2022-12-18T05:12:38;61.30;;;29.33;;
11191;SDS011;5652;48.406;10.820;2022-12-18T05:15:23;62.83;;;31.30;;
11191;SDS011;5652;48.406;10.820;2022-12-18T05:17:50;60.83;;;30.15;;
11191;SDS011;5652;48.406;10.820;2022-12-18T05:20:17;69.43;;;32.28;;
11191;SDS011;5652;48.406;10.820;2022-12-18T05:22:44;73.22;;;32.15;;
11191;SDS011;5652;48.406;10.820;2022-12-18T05:25:13;66.15;;;32.63;;
11191;SDS011;5652;48.406;10.820;2022-12-18T05:27:41;66.90;;;31.57;;
11191;SDS011;5652;48.406;10.820;2022-12-18T05:30:08;73.43;;;34.35;;
11191;SDS011;5652;48.406;10.820;2022-12-18T05:32:36;78.55;;;36.05;;
11191;SDS011;5652;48.406;10.820;2022-12-18T05:35:05;79.15;;;36.20;;
11191;SDS011;5652;48.406;10.820;2022-12-18T05:37:33;74.80;;;34.40;;
11191;SDS011;5652;48.406;10.820;2022-12-18T05:40:00;76.53;;;35.73;;
11191;SDS011;5652;48.406;10.820;2022-12-18T05:42:29;74.70;;;32.90;;
11191;SDS011;5652;48.406;10.820;2022-12-18T05:44:57;65.00;;;30.80;;
11191;SDS011;5652;48.406;10.820;2022-12-18T05:47:24;68.15;;;31.90;;
11191;SDS011;5652;48.406;10.820;2022-12-18T05:49:51;75.20;;;33.45;;
11191;SDS011;5652;48.406;10.820;2022-12-18T05:52:18;65.18;;;30.92;;
11191;SDS011;5652;48.406;10.820;2022-12-18T05:54:46;67.15;;;31.80;;
11191;SDS011;5652;48.406;10.820;2022-12-18T05:57:14;65.88;;;30.55;;
11191;SDS011;5652;48.406;10.820;2022-12-18T05:59:42;61.42;;;30.77;;
11191;SDS011;5652;48.406;10.820;2022-12-18T06:02:10;72.82;;;31.23;;
11191;SDS011;5652;48.406;10.820;2022-12-18T06:04:38;65.07;;;30.70;;
11191;SDS011;5652;48.406;10.820;2022-12-18T06:07:05;64.70;;;30.93;;
11191;SDS011;5652;48.406;10.820;2022-12-18T06:09:32;61.47;;;30.23;;
11191;SDS011;5652;48.406;10.820;2022-12-18T06:11:59;61.30;;;30.05;;
11191;SDS011;5652;48.406;10.820;2022-12-18T06:14:26;66.25;;;31.20;;
11191;SDS011;5652;48.406;10.820;2022-12-18T06:16:55;63.28;;;31.17;;
11191;SDS011;5652;48.406;10.820;2022-12-18T06:19:23;72.13;;;33.47;;
11191;SDS011;5652;48.406;10.820;2022-12-18T06:21:50;78.43;;;36.28;;
11191;SDS011;5652;48.406;10.820;2022-12-18T06:24:18;82.63;;;35.85;;
11191;SDS011;5652;48.406;10.820;2022-12-18T06:26:45;85.28;;;37.75;;
11191;SDS011;5652;48.406;10.820;2022-12-18T06:29:12;80.55;;;38.20;;
11191;SDS011;5652;48.406;10.820;2022-12-18T06:31:40;84.72;;;37.72;;
11191;SDS011;5652;48.406;10.820;2022-12-18T06:34:08;77.23;;;35.00;;
11191;SDS011;5652;48.406;10.820;2022-12-18T06:36:35;69.93;;;33.88;;
11191;SDS011;5652;48.406;10.820;2022-12-18T06:39:03;68.38;;;33.70;;
11191;SDS011;5652;48.406;10.820;2022-12-18T06:41:30;69.38;;;32.85;;
11191;SDS011;5652;48.406;10.820;2022-12-18T06:43:57;75.80;;;33.55;;
11191;SDS011;5652;48.406;10.820;2022-12-18T06:46:24;74.63;;;32.97;;
11191;SDS011;5652;48.406;10.820;2022-12-18T06:48:52;77.23;;;33.00;;
11191;SDS011;5652;48.406;10.820;2022-12-18T06:51:21;69.50;;;31.83;;
11191;SDS011;5652;48.406;10.820;2022-12-18T06:53:48;70.75;;;33.22;;
11191;SDS011;5652;48.406;10.820;2022-12-18T06:56:16;70.40;;;33.20;;
11191;SDS011;5652;48.406;10.820;2022-12-18T06:58:43;67.40;;;32.75;;
11191;SDS011;5652;48.406;10.820;2022-12-18T07:01:11;70.88;;;33.55;;
11191;SDS011;5652;48.406;10.820;2022-12-18T07:03:39;74.82;;;33.50;;
11191;SDS011;5652;48.406;10.820;2022-12-18T07:06:06;69.15;;;32.45;;
11191;SDS011;5652;48.406;10.820;2022-12-18T07:08:41;71.68;;;32.72;;
11191;SDS011;5652;48.406;10.820;2022-12-18T07:11:08;68.93;;;33.67;;
11191;SDS011;5652;48.406;10.820;2022-12-18T07:13:35;69.63;;;32.63;;
11191;SDS011;5652;48.406;10.820;2022-12-18T07:16:03;72.38;;;33.45;;
11191;SDS011;5652;48.406;10.820;2022-12-18T07:18:30;73.30;;;34.08;;
11191;SDS011;5652;48.406;10.820;2022-12-18T07:20:58;80.50;;;33.57;;
11191;SDS011;5652;48.406;10.820;2022-12-18T07:23:25;72.07;;;32.65;;
11191;SDS011;5652;48.406;10.820;2022-12-18T07:25:53;68.70;;;31.92;;
11191;SDS011;5652;48.406;10.820;2022-12-18T07:28:20;62.03;;;30.23;;
11191;SDS011;5652;48.406;10.820;2022-12-18T07:30:48;61.10;;;30.70;;
11191;SDS011;5652;48.406;10.820;2022-12-18T07:33:16;65.43;;;30.90;;
11191;SDS011;5652;48.406;10.820;2022-12-18T07:35:43;66.85;;;31.27;;
11191;SDS011;5652;48.406;10.820;2022-12-18T07:38:10;65.97;;;30.27;;
11191;SDS011;5652;48.406;10.820;2022-12-18T07:40:37;60.70;;;29.48;;
11191;SDS011;5652;48.406;10.820;2022-12-18T07:43:06;95.72;;;32.15;;
11191;SDS011;5652;48.406;10.820;2022-12-18T07:45:33;63.97;;;30.98;;
11191;SDS011;5652;48.406;10.820;2022-12-18T07:48:01;65.22;;;30.60;;
11191;SDS011;5652;48.406;10.820;2022-12-18T07:50:28;60.07;;;29.57;;
11191;SDS011;5652;48.406;10.820;2022-12-18T07:52:55;59.97;;;29.13;;
11191;SDS011;5652;48.406;10.820;2022-12-18T07:55:23;59.03;;;29.42;;
11191;SDS011;5652;48.406;10.820;2022-12-18T07:57:50;56.83;;;28.60;;
11191;SDS011;5652;48.406;10.820;2022-12-18T08:00:19;57.30;;;27.93;;
11191;SDS011;5652;48.406;10.820;2022-12-18T08:02:46;57.78;;;29.65;;
11191;SDS011;5652;48.406;10.820;2022-12-18T08:05:14;61.28;;;29.15;;
11191;SDS011;5652;48.406;10.820;2022-12-18T08:07:41;60.28;;;29.40;;
11191;SDS011;5652;48.406;10.820;2022-12-18T08:10:09;59.78;;;30.60;;
11191;SDS011;5652;48.406;10.820;2022-12-18T08:12:36;63.67;;;30.48;;
11191;SDS011;5652;48.406;10.820;2022-12-18T08:15:03;55.25;;;29.77;;
11191;SDS011;5652;48.406;10.820;2022-12-18T08:17:32;54.67;;;29.00;;
11191;SDS011;5652;48.406;10.820;2022-12-18T08:19:59;54.33;;;28.35;;
11191;SDS011;5652;48.406;10.820;2022-12-18T08:22:27;50.90;;;27.95;;
11191;SDS011;5652;48.406;10.820;2022-12-18T08:24:54;51.25;;;26.25;;
11191;SDS011;5652;48.406;10.820;2022-12-18T08:27:21;51.55;;;25.75;;
11191;SDS011;5652;48.406;10.820;2022-12-18T08:29:48;47.60;;;26.10;;
11191;SDS011;5652;48.406;10.820;2022-12-18T08:32:16;48.33;;;26.58;;
11191;SDS011;5652;48.406;10.820;2022-12-18T08:34:44;49.85;;;26.73;;
11191;SDS011;5652;48.406;10.820;2022-12-18T08:37:11;47.72;;;25.45;;
11191;SDS011;5652;48.406;10.820;2022-12-18T08:39:39;49.88;;;26.00;;
11191;SDS011;5652;48.406;10.820;2022-12-18T08:42:06;45.08;;;24.75;;
11191;SDS011;5652;48.406;10.820;2022-12-18T08:44:51;47.97;;;24.97;;
11191;SDS011;5652;48.406;10.820;2022-12-18T08:47:19;44.42;;;24.25;;
11191;SDS011;5652;48.406;10.820;2022-12-18T08:49:47;46.40;;;24.38;;
11191;SDS011;5652;48.406;10.820;2022-12-18T08:52:14;45.65;;;24.75;;
11191;SDS011;5652;48.406;10.820;2022-12-18T08:54:42;46.20;;;24.35;;
11191;SDS011;5652;48.406;10.820;2022-12-18T08:57:09;47.42;;;25.42;;
11191;SDS011;5652;48.406;10.820;2022-12-18T08:59:36;43.88;;;24.48;;
11191;SDS011;5652;48.406;10.820;2022-12-18T09:02:03;50.42;;;25.40;;
11191;SDS011;5652;48.406;10.820;2022-12-18T09:04:30;48.90;;;25.97;;
11191;SDS011;5652;48.406;10.820;2022-12-18T09:06:59;48.15;;;26.08;;
11191;SDS011;5652;48.406;10.820;2022-12-18T09:09:26;50.83;;;26.48;;
11191;SDS011;5652;48.406;10.820;2022-12-18T09:11:53;45.78;;;24.73;;
11191;SDS011;5652;48.406;10.820;2022-12-18T09:14:21;45.97;;;24.48;;
11191;SDS011;5652;48.406;10.820;2022-12-18T09:16:48;44.97;;;24.17;;
11191;SDS011;5652;48.406;10.820;2022-12-18T09:19:15;43.28;;;24.08;;
11191;SDS011;5652;48.406;10.820;2022-12-18T09:21:42;45.00;;;24.80;;
11191;SDS011;5652;48.406;10.820;2022-12-18T09:24:12;44.47;;;24.60;;
11191;SDS011;5652;48.406;10.820;2022-12-18T09:26:39;44.72;;;24.33;;
11191;SDS011;5652;48.406;10.820;2022-12-18T09:29:07;46.55;;;25.55;;
11191;SDS011;5652;48.406;10.820;2022-12-18T09:31:35;43.80;;;24.13;;
11191;SDS011;5652;48.406;10.820;2022-12-18T09:34:03;47.22;;;25.98;;
11191;SDS011;5652;48.406;10.820;2022-12-18T09:36:30;42.92;;;24.77;;
11191;SDS011;5652;48.406;10.820;2022-12-18T09:38:58;44.63;;;25.08;;
11191;SDS011;5652;48.406;10.820;2022-12-18T09:41:32;44.75;;;24.95;;
11191;SDS011;5652;48.406;10.820;2022-12-18T09:44:01;42.90;;;24.38;;
11191;SDS011;5652;48.406;10.820;2022-12-18T09:46:30;39.58;;;23.60;;
11191;SDS011;5652;48.406;10.820;2022-12-18T09:49:01;43.00;;;23.98;;
11191;SDS011;5652;48.406;10.820;2022-12-18T09:51:30;43.58;;;24.70;;
11191;SDS011;5652;48.406;10.820;2022-12-18T09:54:01;41.75;;;24.25;;
11191;SDS011;5652;48.406;10.820;2022-12-18T09:56:34;41.38;;;23.80;;
11191;SDS011;5652;48.406;10.820;2022-12-18T09:59:02;42.60;;;24.63;;
11191;SDS011;5652;48.406;10.820;2022-12-18T10:01:31;43.60;;;23.98;;
11191;SDS011;5652;48.406;10.820;2022-12-18T10:03:59;42.55;;;24.60;;
11191;SDS011;5652;48.406;10.820;2022-12-18T10:06:27;41.67;;;23.73;;
11191;SDS011;5652;48.406;10.820;2022-12-18T10:08:59;44.45;;;24.90;;
11191;SDS011;5652;48.406;10.820;2022-12-18T10:11:38;40.65;;;24.33;;
11191;SDS011;5652;48.406;10.820;2022-12-18T10:14:09;42.47;;;24.80;;
11191;SDS011;5652;48.406;10.820;2022-12-18T10:16:39;43.35;;;24.45;;
11191;SDS011;5652;48.406;10.820;2022-12-18T10:19:13;44.53;;;24.75;;
11191;SDS011;5652;48.406;10.820;2022-12-18T10:21:45;42.50;;;24.60;;
11191;SDS011;5652;48.406;10.820;2022-12-18T10:24:17;44.03;;;25.58;;
11191;SDS011;5652;48.406;10.820;2022-12-18T10:26:52;43.17;;;24.92;;
11191;SDS011;5652;48.406;10.820;2022-12-18T10:29:20;43.42;;;24.75;;
11191;SDS011;5652;48.406;10.820;2022-12-18T10:31:47;41.42;;;24.60;;
11191;SDS011;5652;48.406;10.820;2022-12-18T10:34:15;41.72;;;24.33;;
11191;SDS011;5652;48.406;10.820;2022-12-18T10:36:42;38.83;;;22.50;;
11191;SDS011;5652;48.406;10.820;2022-12-18T10:39:16;39.63;;;23.10;;
11191;SDS011;5652;48.406;10.820;2022-12-18T10:41:43;40.95;;;24.40;;
11191;SDS011;5652;48.406;10.820;2022-12-18T10:44:15;45.08;;;24.08;;
11191;SDS011;5652;48.406;10.820;2022-12-18T10:46:43;38.95;;;23.33;;
11191;SDS011;5652;48.406;10.820;2022-12-18T10:49:18;39.95;;;23.85;;
11191;SDS011;5652;48.406;10.820;2022-12-18T10:51:46;42.70;;;24.77;;
11191;SDS011;5652;48.406;10.820;2022-12-18T10:54:14;39.95;;;23.30;;
11191;SDS011;5652;48.406;10.820;2022-12-18T10:56:42;41.17;;;23.70;;
11191;SDS011;5652;48.406;10.820;2022-12-18T10:59:10;40.08;;;23.10;;
11191;SDS011;5652;48.406;10.820;2022-12-18T11:01:50;41.05;;;23.45;;
11191;SDS011;5652;48.406;10.820;2022-12-18T11:04:20;38.92;;;23.02;;
11191;SDS011;5652;48.406;10.820;2022-12-18T11:06:52;38.30;;;24.25;;
11191;SDS011;5652;48.406;10.820;2022-12-18T11:09:21;41.17;;;25.00;;
11191;SDS011;5652;48.406;10.820;2022-12-18T11:11:48;42.00;;;24.63;;
11191;SDS011;5652;48.406;10.820;2022-12-18T11:14:19;37.92;;;23.80;;
11191;SDS011;5652;48.406;10.820;2022-12-18T11:16:49;38.03;;;23.00;;
11191;SDS011;5652;48.406;10.820;2022-12-18T11:19:28;36.92;;;23.77;;
11191;SDS011;5652;48.406;10.820;2022-12-18T11:21:57;37.80;;;23.58;;
11191;SDS011;5652;48.406;10.820;2022-12-18T11:24:29;38.53;;;24.38;;
11191;SDS011;5652;48.406;10.820;2022-12-18T11:26:57;38.13;;;23.75;;
11191;SDS011;5652;48.406;10.820;2022-12-18T11:29:28;38.17;;;23.70;;
11191;SDS011;5652;48.406;10.820;2022-12-18T11:34:57;39.95;;;24.27;;
11191;SDS011;5652;48.406;10.820;2022-12-18T11:37:26;40.63;;;24.42;;
11191;SDS011;5652;48.406;10.820;2022-12-18T11:39:54;39.27;;;23.23;;
11191;SDS011;5652;48.406;10.820;2022-12-18T11:42:24;38.80;;;23.43;;
11191;SDS011;5652;48.406;10.820;2022-12-18T11:44:53;38.85;;;23.70;;
11191;SDS011;5652;48.406;10.820;2022-12-18T11:47:25;36.67;;;23.48;;
11191;SDS011;5652;48.406;10.820;2022-12-18T11:49:54;40.72;;;24.52;;
11191;SDS011;5652;48.406;10.820;2022-12-18T11:52:25;40.30;;;25.52;;
11191;SDS011;5652;48.406;10.820;2022-12-18T11:54:54;38.60;;;24.42;;
11191;SDS011;5652;48.406;10.820;2022-12-18T11:57:25;43.67;;;25.60;;
11191;SDS011;5652;48.406;10.820;2022-12-18T12:00:00;40.55;;;24.13;;
11191;SDS011;5652;48.406;10.820;2022-12-18T12:02:37;43.35;;;25.98;;
11191;SDS011;5652;48.406;10.820;2022-12-18T12:05:12;39.83;;;25.30;;
11191;SDS011;5652;48.406;10.820;2022-12-18T12:07:46;43.92;;;26.80;;
11191;SDS011;5652;48.406;10.820;2022-12-18T12:10:18;41.80;;;26.13;;
11191;SDS011;5652;48.406;10.820;2022-12-18T12:12:54;39.33;;;24.25;;
11191;SDS011;5652;48.406;10.820;2022-12-18T12:15:30;42.20;;;26.47;;
11191;SDS011;5652;48.406;10.820;2022-12-18T12:18:01;37.40;;;23.17;;
11191;SDS011;5652;48.406;10.820;2022-12-18T12:20:37;40.15;;;24.42;;
11191;SDS011;5652;48.406;10.820;2022-12-18T12:23:09;37.90;;;23.60;;
11191;SDS011;5652;48.406;10.820;2022-12-18T12:25:42;41.17;;;24.10;;
11191;SDS011;5652;48.406;10.820;2022-12-18T12:28:15;38.97;;;24.48;;
11191;SDS011;5652;48.406;10.820;2022-12-18T12:30:48;37.05;;;23.13;;
11191;SDS011;5652;48.406;10.820;2022-12-18T12:33:23;36.63;;;23.27;;
11191;SDS011;5652;48.406;10.820;2022-12-18T12:35:52;38.08;;;23.60;;
11191;SDS011;5652;48.406;10.820;2022-12-18T12:38:24;38.43;;;22.70;;
11191;SDS011;5652;48.406;10.820;2022-12-18T12:40:53;39.22;;;23.85;;
11191;SDS011;5652;48.406;10.820;2022-12-18T12:43:22;38.27;;;23.17;;
11191;SDS011;5652;48.406;10.820;2022-12-18T12:45:51;37.60;;;23.52;;
11191;SDS011;5652;48.406;10.820;2022-12-18T12:48:27;38.83;;;24.67;;
11191;SDS011;5652;48.406;10.820;2022-12-18T12:50:58;40.80;;;24.65;;
11191;SDS011;5652;48.406;10.820;2022-12-18T12:53:29;39.00;;;23.90;;
11191;SDS011;5652;48.406;10.820;2022-12-18T12:55:57;40.63;;;24.15;;
11191;SDS011;5652;48.406;10.820;2022-12-18T12:58:26;40.53;;;24.55;;
11191;SDS011;5652;48.406;10.820;2022-12-18T13:00:58;37.55;;;23.20;;
11191;SDS011;5652;48.406;10.820;2022-12-18T13:03:30;40.17;;;25.02;;
11191;SDS011;5652;48.406;10.820;2022-12-18T13:06:02;41.55;;;25.20;;
11191;SDS011;5652;48.406;10.820;2022-12-18T13:08:34;37.17;;;23.02;;
11191;SDS011;5652;48.406;10.820;2022-12-18T13:11:28;39.03;;;23.65;;
11191;SDS011;5652;48.406;10.820;2022-12-18T13:14:19;39.20;;;23.38;;
11191;SDS011;5652;48.406;10.820;2022-12-18T13:16:47;38.72;;;22.85;;
11191;SDS011;5652;48.406;10.820;2022-12-18T13:19:20;37.33;;;22.80;;
11191;SDS011;5652;48.406;10.820;2022-12-18T13:21:51;35.85;;;22.30;;
11191;SDS011;5652;48.406;10.820;2022-12-18T13:24:22;36.33;;;22.50;;
11191;SDS011;5652;48.406;10.820;2022-12-18T13:26:50;37.13;;;23.17;;
11191;SDS011;5652;48.406;10.820;2022-12-18T13:32:00;38.83;;;23.60;;
11191;SDS011;5652;48.406;10.820;2022-12-18T13:34:27;38.17;;;23.10;;
11191;SDS011;5652;48.406;10.820;2022-12-18T13:36:56;39.20;;;23.75;;
11191;SDS011;5652;48.406;10.820;2022-12-18T13:39:34;39.00;;;24.10;;
11191;SDS011;5652;48.406;10.820;2022-12-18T13:45:01;43.00;;;25.58;;
11191;SDS011;5652;48.406;10.820;2022-12-18T13:47:31;39.92;;;24.83;;
11191;SDS011;5652;48.406;10.820;2022-12-18T13:49:58;40.15;;;23.55;;
11191;SDS011;5652;48.406;10.820;2022-12-18T13:52:26;40.25;;;24.83;;
11191;SDS011;5652;48.406;10.820;2022-12-18T13:54:56;41.17;;;23.83;;
11191;SDS011;5652;48.406;10.820;2022-12-18T13:57:25;40.33;;;24.17;;
11191;SDS011;5652;48.406;10.820;2022-12-18T13:59:54;42.38;;;24.77;;
11191;SDS011;5652;48.406;10.820;2022-12-18T14:02:22;41.65;;;24.85;;
11191;SDS011;5652;48.406;10.820;2022-12-18T14:04:50;52.35;;;31.85;;
11191;SDS011;5652;48.406;10.820;2022-12-18T14:07:18;47.72;;;29.50;;
11191;SDS011;5652;48.406;10.820;2022-12-18T14:09:46;40.80;;;24.38;;
11191;SDS011;5652;48.406;10.820;2022-12-18T14:12:16;41.20;;;24.17;;
11191;SDS011;5652;48.406;10.820;2022-12-18T14:15:02;39.80;;;23.67;;
11191;SDS011;5652;48.406;10.820;2022-12-18T14:17:30;39.30;;;22.77;;
11191;SDS011;5652;48.406;10.820;2022-12-18T14:19:58;38.70;;;22.60;;
11191;SDS011;5652;48.406;10.820;2022-12-18T14:22:25;37.78;;;23.02;;
11191;SDS011;5652;48.406;10.820;2022-12-18T14:27:51;38.45;;;23.65;;
11191;SDS011;5652;48.406;10.820;2022-12-18T14:30:28;40.00;;;23.30;;
11191;SDS011;5652;48.406;10.820;2022-12-18T14:32:59;41.05;;;23.85;;
11191;SDS011;5652;48.406;10.820;2022-12-18T14:35:26;41.97;;;24.85;;
11191;SDS011;5652;48.406;10.820;2022-12-18T14:37:53;38.40;;;23.05;;
11191;SDS011;5652;48.406;10.820;2022-12-18T14:40:22;39.95;;;22.75;;
11191;SDS011;5652;48.406;10.820;2022-12-18T14:42:51;39.25;;;23.27;;
11191;SDS011;5652;48.406;10.820;2022-12-18T14:45:34;40.75;;;24.15;;
11191;SDS011;5652;48.406;10.820;2022-12-18T14:48:06;42.70;;;23.67;;